createdAt,value
2019-06-01T00:01:16.187Z,61.70
2019-06-01T00:03:48.597Z,61.70
2019-06-01T00:06:18.396Z,61.70
2019-06-01T00:08:49.326Z,61.30
2019-06-01T00:11:19.256Z,61.90
2019-06-01T00:13:49.696Z,62.10
2019-06-01T00:16:19.751Z,62.20
2019-06-01T00:18:50.368Z,62.30
2019-06-01T00:21:20.251Z,62.50
2019-06-01T00:23:50.030Z,62.50
2019-06-01T00:26:19.796Z,62.50
2019-06-01T00:28:50.030Z,62.50
2019-06-01T00:31:19.856Z,62.60
2019-06-01T00:33:49.654Z,62.70
2019-06-01T00:36:19.419Z,62.80
2019-06-01T00:38:49.959Z,62.70
2019-06-01T00:41:19.948Z,62.80
2019-06-01T00:43:50.473Z,62.80
2019-06-01T00:46:20.312Z,62.90
2019-06-01T00:48:50.078Z,63.00
2019-06-01T00:51:19.841Z,63.00
2019-06-01T00:53:49.759Z,62.90
2019-06-01T00:56:19.509Z,63.00
2019-06-01T00:58:49.804Z,63.10
2019-06-01T01:01:19.656Z,63.10
2019-06-01T01:03:50.210Z,63.10
2019-06-01T01:06:20.096Z,63.10
2019-06-01T01:08:50.954Z,63.10
2019-06-01T01:11:20.819Z,63.10
2019-06-01T01:13:51.273Z,63.20
2019-06-01T01:16:21.085Z,64.10
2019-06-01T01:18:51.824Z,63.30
2019-06-01T01:21:21.832Z,63.40
2019-06-01T01:23:53.040Z,63.40
2019-06-01T01:26:23.095Z,63.50
2019-06-01T01:28:53.023Z,63.60
2019-06-01T01:31:22.730Z,63.60
2019-06-01T01:33:53.343Z,63.70
2019-06-01T01:36:23.136Z,63.70
2019-06-01T01:38:54.245Z,63.80
2019-06-01T01:41:25.222Z,63.90
2019-06-01T01:43:55.072Z,64.00
2019-06-01T01:46:24.762Z,63.90
2019-06-01T01:48:54.575Z,63.90
2019-06-01T01:51:24.342Z,64.00
2019-06-01T01:53:54.738Z,64.00
2019-06-01T01:56:24.586Z,64.10
2019-06-01T01:58:54.375Z,64.10
2019-06-01T02:01:24.182Z,64.10
2019-06-01T02:03:55.355Z,64.20
2019-06-01T02:06:28.825Z,64.30
2019-06-01T02:08:57.129Z,64.40
2019-06-01T02:11:27.704Z,64.40
2019-06-01T02:13:57.781Z,64.50
2019-06-01T02:16:27.727Z,64.50
2019-06-01T02:18:58.802Z,64.60
2019-06-01T02:21:28.820Z,64.80
2019-06-01T02:23:59.055Z,64.70
2019-06-01T02:26:29.067Z,64.70
2019-06-01T02:28:59.505Z,64.90
2019-06-01T02:31:40.473Z,65.00
2019-06-01T02:34:03.320Z,65.00
2019-06-01T02:36:32.234Z,65.10
2019-06-01T02:39:03.218Z,65.20
2019-06-01T02:41:33.491Z,65.20
2019-06-01T02:44:04.369Z,65.20
2019-06-01T02:46:36.293Z,66.10
2019-06-01T02:49:06.342Z,65.30
2019-06-01T02:51:36.427Z,65.40
2019-06-01T02:54:06.348Z,65.40
2019-06-01T02:56:36.344Z,65.40
2019-06-01T02:59:06.736Z,66.40
2019-06-01T03:01:38.016Z,65.60
2019-06-01T03:04:09.639Z,66.40
2019-06-01T03:06:42.255Z,65.90
2019-06-01T03:09:12.883Z,65.80
2019-06-01T03:11:42.851Z,65.80
2019-06-01T03:14:13.035Z,65.90
2019-06-01T03:16:43.538Z,65.90
2019-06-01T03:19:16.351Z,66.00
2019-06-01T03:21:47.720Z,66.10
2019-06-01T03:24:20.459Z,66.10
2019-06-01T03:26:50.228Z,66.20
2019-06-01T03:29:20.495Z,66.40
2019-06-01T03:31:50.200Z,66.40
2019-06-01T03:34:20.051Z,66.50
2019-06-01T03:36:50.316Z,66.60
2019-06-01T03:39:20.182Z,66.80
2019-06-01T03:41:49.924Z,66.80
2019-06-01T03:44:19.686Z,66.80
2019-06-01T03:46:49.531Z,66.90
2019-06-01T03:49:19.363Z,66.90
2019-06-01T03:51:49.088Z,67.00
2019-06-01T03:54:18.973Z,66.90
2019-06-01T03:56:48.889Z,67.00
2019-06-01T03:59:18.755Z,67.00
2019-06-01T04:01:48.632Z,67.00
2019-06-01T04:04:18.467Z,67.40
2019-06-01T04:06:48.261Z,67.00
2019-06-01T04:09:17.968Z,67.10
2019-06-01T04:11:47.822Z,66.90
2019-06-01T04:14:17.599Z,67.10
2019-06-01T04:16:47.390Z,67.00
2019-06-01T04:19:17.183Z,67.00
2019-06-01T04:21:46.957Z,67.10
2019-06-01T04:24:16.905Z,67.10
2019-06-01T04:26:46.669Z,67.10
2019-06-01T04:29:16.508Z,67.20
2019-06-01T04:31:46.205Z,67.20
2019-06-01T04:34:16.050Z,67.20
2019-06-01T04:36:45.834Z,67.30
2019-06-01T04:39:15.601Z,68.10
2019-06-01T04:41:45.434Z,67.40
2019-06-01T04:44:18.203Z,67.40
2019-06-01T04:46:46.555Z,67.40
2019-06-01T04:49:16.316Z,67.50
2019-06-01T04:51:46.215Z,67.60
2019-06-01T04:54:16.111Z,67.60
2019-06-01T04:56:45.995Z,67.70
2019-06-01T04:59:15.848Z,67.70
2019-06-01T05:01:45.691Z,67.80
2019-06-01T05:04:15.587Z,67.80
2019-06-01T05:06:45.472Z,67.90
2019-06-01T05:09:15.748Z,68.00
2019-06-01T05:11:46.822Z,68.00
2019-06-01T05:14:16.748Z,68.10
2019-06-01T05:16:46.676Z,68.20
2019-06-01T05:19:16.787Z,68.10
2019-06-01T05:21:46.805Z,68.20
2019-06-01T05:24:17.659Z,68.30
2019-06-01T05:26:47.532Z,68.40
2019-06-01T05:29:18.014Z,68.40
2019-06-01T05:31:48.298Z,68.50
2019-06-01T05:34:19.306Z,68.60
2019-06-01T05:36:49.197Z,68.90
2019-06-01T05:39:20.087Z,68.60
2019-06-01T05:41:49.928Z,68.60
2019-06-01T05:44:25.947Z,68.60
2019-06-01T05:46:56.847Z,68.70
2019-06-01T05:49:42.754Z,68.60
2019-06-01T05:52:14.493Z,68.60
2019-06-01T05:54:44.458Z,68.50
2019-06-01T05:57:14.723Z,68.40
2019-06-01T05:59:46.505Z,68.40
2019-06-01T06:02:22.870Z,68.30
2019-06-01T06:04:54.182Z,68.20
2019-06-01T06:07:24.246Z,68.10
2019-06-01T06:09:54.135Z,68.50
2019-06-01T06:12:24.066Z,68.10
2019-06-01T06:14:59.727Z,68.10
2019-06-01T06:17:29.586Z,67.80
2019-06-01T06:19:59.438Z,67.80
2019-06-01T06:22:29.299Z,67.70
2019-06-01T06:25:02.425Z,67.50
2019-06-01T06:27:32.392Z,67.40
2019-06-01T06:30:03.042Z,67.50
2019-06-01T06:32:34.350Z,67.30
2019-06-01T06:35:07.250Z,67.20
2019-06-01T06:37:37.123Z,67.20
2019-06-01T06:40:09.477Z,67.10
2019-06-01T06:42:39.337Z,67.10
2019-06-01T06:45:09.145Z,67.10
2019-06-01T06:47:40.611Z,67.00
2019-06-01T06:50:16.008Z,66.90
2019-06-01T06:52:48.883Z,66.90
2019-06-01T06:55:19.811Z,67.20
2019-06-01T06:57:51.558Z,67.10
2019-06-01T07:00:22.657Z,67.30
2019-06-01T07:02:52.585Z,67.60
2019-06-01T07:05:23.229Z,67.80
2019-06-01T07:07:54.213Z,67.80
2019-06-01T07:10:24.295Z,67.70
2019-06-01T07:12:54.250Z,67.10
2019-06-01T07:15:24.116Z,67.60
2019-06-01T07:17:53.996Z,67.60
2019-06-01T07:20:23.825Z,67.40
2019-06-01T07:22:53.737Z,67.30
2019-06-01T07:25:24.487Z,67.30
2019-06-01T07:27:54.775Z,67.30
2019-06-01T07:30:24.608Z,67.10
2019-06-01T07:32:54.702Z,67.10
2019-06-01T07:35:26.382Z,67.10
2019-06-01T07:37:56.226Z,67.00
2019-06-01T07:40:27.217Z,66.90
2019-06-01T07:42:58.107Z,67.00
2019-06-01T07:45:29.370Z,67.00
2019-06-01T07:47:59.466Z,67.00
2019-06-01T07:50:29.287Z,67.00
2019-06-01T07:53:00.453Z,67.00
2019-06-01T07:55:31.650Z,66.90
2019-06-01T07:58:01.747Z,67.10
2019-06-01T08:00:33.236Z,66.90
2019-06-01T08:03:03.268Z,66.90
2019-06-01T08:05:33.143Z,66.90
2019-06-01T08:08:03.045Z,66.90
2019-06-01T08:10:32.905Z,67.00
2019-06-01T08:13:02.791Z,67.10
2019-06-01T08:15:32.624Z,67.00
2019-06-01T08:18:02.509Z,66.90
2019-06-01T08:20:32.378Z,66.90
2019-06-01T08:23:02.230Z,67.00
2019-06-01T08:25:32.780Z,67.00
2019-06-01T08:28:02.749Z,67.00
2019-06-01T08:30:32.740Z,67.00
2019-06-01T08:33:03.669Z,67.00
2019-06-01T08:35:33.537Z,67.10
2019-06-01T08:38:04.272Z,67.10
2019-06-01T08:40:34.130Z,67.10
2019-06-01T08:43:03.993Z,67.10
2019-06-01T08:45:37.253Z,67.20
2019-06-01T08:48:05.473Z,67.30
2019-06-01T08:50:35.346Z,67.50
2019-06-01T08:53:05.245Z,67.50
2019-06-01T08:55:35.144Z,67.50
2019-06-01T08:58:05.119Z,67.60
2019-06-01T09:00:35.010Z,67.70
2019-06-01T09:03:04.893Z,67.60
2019-06-01T09:05:35.168Z,67.70
2019-06-01T09:08:05.318Z,67.60
2019-06-01T09:10:36.301Z,67.80
2019-06-01T09:13:06.190Z,67.80
2019-06-01T09:15:36.072Z,67.70
2019-06-01T09:18:05.923Z,67.80
2019-06-01T09:20:38.736Z,67.80
2019-06-01T09:23:07.312Z,67.80
2019-06-01T09:25:37.221Z,67.90
2019-06-01T09:28:07.138Z,67.80
2019-06-01T09:30:37.108Z,67.90
2019-06-01T09:33:06.993Z,67.80
2019-06-01T09:35:53.687Z,68.00
2019-06-01T09:38:08.418Z,68.10
2019-06-01T09:40:38.314Z,68.20
2019-06-01T09:43:08.154Z,68.30
2019-06-01T09:45:38.367Z,68.40
2019-06-01T09:48:10.889Z,68.40
2019-06-01T09:50:41.330Z,68.40
2019-06-01T09:53:11.238Z,68.50
2019-06-01T09:55:41.124Z,68.60
2019-06-01T09:58:11.011Z,68.70
2019-06-01T10:00:43.622Z,68.60
2019-06-01T10:03:12.500Z,68.80
2019-06-01T10:05:42.388Z,69.00
2019-06-01T10:08:12.320Z,69.00
2019-06-01T10:10:42.334Z,69.00
2019-06-01T10:13:12.365Z,69.00
2019-06-01T10:15:42.962Z,68.90
2019-06-01T10:18:17.607Z,68.90
2019-06-01T10:20:47.456Z,69.00
2019-06-01T10:23:18.903Z,69.30
2019-06-01T10:25:48.597Z,69.50
2019-06-01T10:28:18.545Z,69.80
2019-06-01T10:30:51.417Z,70.80
2019-06-01T10:33:43.214Z,70.10
2019-06-01T10:44:51.320Z,69.50
2019-06-01T10:47:22.821Z,69.40
2019-06-01T10:49:56.283Z,69.30
2019-06-01T10:52:26.215Z,69.00
2019-06-01T10:55:15.245Z,69.10
2019-06-01T10:57:48.535Z,68.80
2019-06-01T11:00:36.544Z,68.60
2019-06-01T11:02:50.304Z,68.40
2019-06-01T11:05:22.898Z,68.10
2019-06-01T11:07:52.773Z,67.90
2019-06-01T11:13:43.344Z,67.60
2019-06-01T11:16:13.425Z,67.50
2019-06-01T11:18:48.247Z,67.50
2019-06-01T11:21:21.206Z,67.10
2019-06-01T11:23:50.989Z,67.10
2019-06-01T11:26:20.848Z,66.90
2019-06-01T11:28:50.583Z,66.80
2019-06-01T11:31:20.449Z,66.90
2019-06-01T11:33:50.254Z,66.80
2019-06-01T11:36:20.106Z,66.80
2019-06-01T11:38:50.096Z,66.80
2019-06-01T11:41:19.970Z,66.80
2019-06-01T11:43:49.859Z,67.00
2019-06-01T11:46:19.763Z,67.00
2019-06-01T11:48:52.672Z,66.90
2019-06-01T11:51:22.543Z,66.90
2019-06-01T11:53:55.081Z,67.00
2019-06-01T11:56:24.947Z,67.10
2019-06-01T11:58:54.840Z,67.10
2019-06-01T12:01:24.713Z,67.10
2019-06-01T12:03:54.632Z,67.10
2019-06-01T12:06:24.505Z,67.60
2019-06-01T12:08:55.269Z,67.10
2019-06-01T12:11:25.045Z,67.10
2019-06-01T12:13:55.002Z,67.10
2019-06-01T12:16:24.970Z,67.10
2019-06-01T12:18:55.961Z,67.20
2019-06-01T12:21:25.780Z,67.30
2019-06-01T12:23:55.749Z,67.30
2019-06-01T12:26:25.653Z,67.30
2019-06-01T12:28:55.519Z,67.50
2019-06-01T12:31:25.439Z,68.30
2019-06-01T12:33:55.289Z,67.60
2019-06-01T12:36:25.657Z,68.40
2019-06-01T12:38:55.484Z,67.70
2019-06-01T12:41:25.379Z,67.80
2019-06-01T12:44:02.769Z,67.80
2019-06-01T12:46:32.602Z,67.80
2019-06-01T12:49:02.493Z,68.00
2019-06-01T12:51:32.380Z,67.80
2019-06-01T12:54:02.332Z,67.50
2019-06-01T12:56:35.189Z,67.40
2019-06-01T12:59:05.943Z,67.40
2019-06-01T13:01:35.806Z,67.40
2019-06-01T13:04:05.701Z,67.40
2019-06-01T13:06:35.585Z,67.10
2019-06-01T13:09:07.955Z,66.80
2019-06-01T13:11:37.858Z,66.60
2019-06-01T13:14:07.769Z,66.40
2019-06-01T13:16:37.597Z,66.30
2019-06-01T13:19:07.445Z,66.30
2019-06-01T13:21:43.440Z,66.30
2019-06-01T13:24:13.308Z,66.20
2019-06-01T13:26:43.723Z,66.10
2019-06-01T13:29:13.830Z,66.10
2019-06-01T13:31:44.353Z,66.00
2019-06-01T13:34:14.423Z,65.90
2019-06-01T13:36:44.561Z,65.80
2019-06-01T13:39:14.668Z,65.90
2019-06-01T13:41:45.066Z,65.70
2019-06-01T13:44:15.671Z,65.40
2019-06-01T13:46:45.541Z,65.40
2019-06-01T13:49:15.485Z,65.40
2019-06-01T13:51:47.829Z,65.30
2019-06-01T13:54:23.277Z,65.10
2019-06-01T13:57:09.848Z,64.60
2019-06-01T13:59:44.767Z,64.00
2019-06-01T14:02:16.216Z,63.80
2019-06-01T14:04:49.822Z,63.90
2019-06-01T14:07:19.145Z,63.90
2019-06-01T14:09:49.124Z,64.00
2019-06-01T14:12:19.037Z,64.00
2019-06-01T14:14:53.557Z,63.90
2019-06-01T14:17:26.281Z,64.00
2019-06-01T14:19:57.374Z,63.90
2019-06-01T14:22:34.626Z,63.70
2019-06-01T14:25:14.227Z,63.50
2019-06-01T14:27:40.128Z,63.30
2019-06-01T14:30:10.229Z,63.00
2019-06-01T14:32:40.054Z,62.80
2019-06-01T14:35:11.479Z,62.80
2019-06-01T14:37:41.507Z,62.80
2019-06-01T14:40:14.654Z,62.70
2019-06-01T14:42:47.224Z,62.60
2019-06-01T14:45:18.769Z,62.30
2019-06-01T14:48:00.979Z,62.00
2019-06-01T14:50:32.447Z,62.10
2019-06-01T14:53:06.455Z,62.80
2019-06-01T14:55:41.978Z,61.90
2019-06-01T14:58:25.015Z,62.10
2019-06-01T15:01:06.095Z,62.00
2019-06-01T15:03:36.041Z,61.80
2019-06-01T15:06:10.743Z,61.80
2019-06-01T15:08:42.267Z,61.90
2019-06-01T15:11:14.693Z,62.00
2019-06-01T15:13:45.991Z,61.90
2019-06-01T15:16:20.359Z,61.70
2019-06-01T15:22:03.527Z,61.30
2019-06-01T15:24:46.998Z,60.90
2019-06-01T15:27:22.669Z,60.30
2019-06-01T15:29:55.013Z,59.80
2019-06-01T15:35:16.784Z,59.40
2019-06-01T15:37:58.130Z,59.90
2019-06-01T15:40:21.677Z,59.50
2019-06-01T15:42:53.590Z,59.50
2019-06-01T15:45:24.075Z,59.50
2019-06-01T15:47:58.332Z,59.50
2019-06-01T15:50:30.005Z,59.50
2019-06-01T15:53:08.081Z,59.50
2019-06-01T15:55:43.993Z,59.50
2019-06-01T15:58:19.902Z,59.50
2019-06-01T16:00:54.985Z,59.40
2019-06-01T16:03:37.178Z,59.20
2019-06-01T16:06:03.478Z,58.90
2019-06-01T16:08:55.280Z,59.00
2019-06-01T16:11:14.719Z,59.00
2019-06-01T16:23:18.823Z,59.10
2019-06-01T16:26:04.539Z,59.00
2019-06-01T16:28:25.199Z,59.20
2019-06-01T16:30:56.293Z,59.10
2019-06-01T16:33:27.823Z,59.20
2019-06-01T16:35:58.749Z,59.30
2019-06-01T16:38:28.782Z,59.30
2019-06-01T16:41:01.280Z,59.00
2019-06-01T16:43:31.373Z,58.70
2019-06-01T16:46:02.094Z,58.30
2019-06-01T16:48:32.153Z,57.80
2019-06-01T16:51:02.588Z,57.40
2019-06-01T16:53:32.867Z,57.00
2019-06-01T16:56:02.649Z,56.80
2019-06-01T16:58:32.509Z,56.80
2019-06-01T17:01:02.638Z,56.70
2019-06-01T17:03:32.629Z,56.80
2019-06-01T17:06:02.887Z,57.10
2019-06-01T17:08:32.937Z,57.70
2019-06-01T17:11:02.826Z,58.20
2019-06-01T17:13:32.658Z,58.60
2019-06-01T17:16:03.023Z,59.00
2019-06-01T17:18:32.991Z,59.30
2019-06-01T17:21:03.542Z,59.50
2019-06-01T17:23:33.436Z,59.80
2019-06-01T17:26:04.078Z,59.90
2019-06-01T17:28:35.095Z,60.10
2019-06-01T17:31:06.291Z,60.90
2019-06-01T17:33:36.236Z,61.40
2019-06-01T17:36:06.842Z,60.40
2019-06-01T17:38:37.828Z,61.20
2019-06-01T17:41:08.446Z,60.10
2019-06-01T17:43:39.168Z,60.00
2019-06-01T17:46:10.100Z,59.90
2019-06-01T17:48:40.710Z,60.10
2019-06-01T17:51:17.830Z,59.70
2019-06-01T17:53:47.667Z,59.60
2019-06-01T17:56:17.534Z,59.60
2019-06-01T17:58:47.331Z,59.50
2019-06-01T18:01:17.033Z,59.50
2019-06-01T18:03:46.880Z,59.50
2019-06-01T18:06:16.663Z,59.50
2019-06-01T18:08:46.448Z,59.50
2019-06-01T18:11:17.261Z,59.60
2019-06-01T18:13:47.103Z,59.70
2019-06-01T18:16:16.955Z,59.80
2019-06-01T18:18:47.802Z,59.90
2019-06-01T18:21:17.685Z,60.00
2019-06-01T18:23:49.236Z,60.10
2019-06-01T18:26:18.952Z,60.00
2019-06-01T18:28:48.805Z,60.10
2019-06-01T18:31:18.646Z,60.20
2019-06-01T18:33:48.377Z,60.00
2019-06-01T18:36:19.695Z,59.60
2019-06-01T18:38:49.506Z,60.00
2019-06-01T18:41:20.187Z,60.10
2019-06-01T18:43:50.026Z,60.20
2019-06-01T18:46:20.784Z,60.20
2019-06-01T18:48:50.579Z,60.40
2019-06-01T18:51:20.367Z,60.50
2019-06-01T18:53:50.253Z,60.50
2019-06-01T18:56:20.052Z,60.60
2019-06-01T18:58:49.899Z,60.50
2019-06-01T19:01:21.084Z,60.60
2019-06-01T19:03:51.428Z,60.80
2019-06-01T19:06:21.287Z,60.70
2019-06-01T19:08:51.053Z,60.80
2019-06-01T19:11:35.110Z,60.90
2019-06-01T19:13:52.396Z,61.00
2019-06-01T19:16:22.183Z,61.40
2019-06-01T19:18:51.969Z,61.60
2019-06-01T19:21:21.759Z,61.80
2019-06-01T19:23:51.623Z,61.90
2019-06-01T19:26:21.433Z,62.00
2019-06-01T19:28:51.347Z,62.00
2019-06-01T19:31:21.131Z,62.10
2019-06-01T19:33:50.959Z,62.30
2019-06-01T19:36:20.943Z,62.30
2019-06-01T19:38:51.701Z,62.50
2019-06-01T19:41:21.480Z,62.60
2019-06-01T19:43:51.470Z,62.50
2019-06-01T19:46:23.489Z,62.50
2019-06-01T19:48:53.999Z,61.90
2019-06-01T19:51:29.720Z,61.70
2019-06-01T19:53:59.600Z,61.50
2019-06-01T19:56:29.537Z,61.30
2019-06-01T19:59:03.139Z,61.10
2019-06-01T20:01:33.119Z,61.20
2019-06-01T20:04:02.943Z,61.00
2019-06-01T20:06:37.499Z,61.20
2019-06-01T20:09:13.032Z,62.10
2019-06-01T20:11:43.117Z,61.10
2019-06-01T20:14:14.191Z,61.20
2019-06-01T20:16:44.262Z,61.20
2019-06-01T20:19:14.190Z,61.10
2019-06-01T20:21:44.191Z,61.20
2019-06-01T20:24:15.717Z,61.20
2019-06-01T20:26:49.203Z,61.60
2019-06-01T20:29:17.683Z,61.10
2019-06-01T20:31:47.594Z,61.20
2019-06-01T20:34:18.010Z,61.20
2019-06-01T20:36:48.036Z,61.30
2019-06-01T20:39:18.290Z,61.30
2019-06-01T20:41:48.190Z,61.30
2019-06-01T20:44:18.831Z,61.20
2019-06-01T20:46:48.861Z,62.10
2019-06-01T20:49:18.747Z,61.30
2019-06-01T20:51:48.583Z,61.30
2019-06-01T20:54:19.051Z,61.40
2019-06-01T20:56:48.922Z,61.50
2019-06-01T20:59:21.293Z,61.50
2019-06-01T21:01:50.199Z,61.50
2019-06-01T21:04:20.368Z,61.60
2019-06-01T21:06:50.929Z,61.60
2019-06-01T21:09:21.926Z,61.70
2019-06-01T21:11:52.018Z,61.70
2019-06-01T21:14:21.825Z,61.80
2019-06-01T21:16:51.728Z,61.90
2019-06-01T21:19:22.412Z,62.10
2019-06-01T21:21:52.395Z,61.90
2019-06-01T21:24:23.092Z,62.00
2019-06-01T21:26:53.845Z,62.20
2019-06-01T21:29:25.064Z,62.10
2019-06-01T21:31:55.176Z,62.30
2019-06-01T21:34:25.438Z,62.30
2019-06-01T21:36:55.346Z,62.80
2019-06-01T21:39:26.218Z,62.40
2019-06-01T21:41:55.981Z,62.50
2019-06-01T21:44:25.888Z,62.50
2019-06-01T21:46:56.738Z,62.60
2019-06-01T21:49:26.516Z,62.60
2019-06-01T21:51:56.406Z,62.70
2019-06-01T21:54:26.432Z,62.80
2019-06-01T21:56:56.323Z,62.80
2019-06-01T21:59:27.177Z,62.90
2019-06-01T22:01:57.200Z,62.90
2019-06-01T22:04:27.226Z,63.10
2019-06-01T22:06:57.194Z,63.10
2019-06-01T22:09:27.429Z,63.20
2019-06-01T22:11:57.426Z,63.30
2019-06-01T22:14:28.265Z,63.20
2019-06-01T22:16:58.111Z,64.10
2019-06-01T22:19:28.093Z,63.20
2019-06-01T22:21:58.075Z,63.20
2019-06-01T22:24:28.278Z,63.20
2019-06-01T22:26:58.367Z,64.20
2019-06-01T22:29:28.622Z,63.40
2019-06-01T22:31:58.614Z,63.50
2019-06-01T22:34:29.293Z,63.40
2019-06-01T22:36:59.433Z,63.50
2019-06-01T22:39:29.276Z,63.50
2019-06-01T22:41:59.156Z,63.60
2019-06-01T22:44:29.015Z,63.50
2019-06-01T22:46:58.863Z,63.70
2019-06-01T22:49:28.940Z,63.70
2019-06-01T22:51:58.834Z,63.80
2019-06-01T22:54:29.366Z,63.80
2019-06-01T22:56:59.324Z,63.90
2019-06-01T22:59:29.409Z,63.80
2019-06-01T23:01:59.041Z,64.00
2019-06-01T23:04:29.349Z,64.00
2019-06-01T23:06:59.293Z,64.10
2019-06-01T23:09:29.667Z,64.00
2019-06-01T23:11:59.507Z,64.10
2019-06-01T23:14:29.513Z,64.20
2019-06-01T23:16:59.317Z,64.20
2019-06-01T23:19:29.942Z,64.10
2019-06-01T23:21:59.879Z,64.30
2019-06-01T23:24:30.314Z,65.30
2019-06-01T23:27:00.195Z,64.40
2019-06-01T23:29:30.271Z,64.50
2019-06-01T23:32:00.162Z,64.50
2019-06-01T23:34:30.668Z,64.50
2019-06-01T23:37:00.569Z,64.40
2019-06-01T23:39:32.910Z,64.40
2019-06-01T23:42:02.935Z,64.60
2019-06-01T23:44:35.004Z,64.60
2019-06-01T23:47:04.315Z,64.50
2019-06-01T23:49:34.241Z,64.40
2019-06-01T23:52:03.914Z,64.50
2019-06-01T23:54:33.939Z,64.50
2019-06-01T23:57:03.927Z,64.50
2019-06-01T23:59:34.346Z,64.70
